Terminal Aerodrome Forecast
Issued by NWS

Home | Current Version | Previous Version | Text Only | Print | Product List | Glossary On
Versions: 1 2 3 4 5 6 7 8 9 10 11 12 13 14
000
FTUS43 KAPX 020520
TAFPLN
TAF
KPLN 020520Z 0206/0306 23004KT P6SM SKC
     FM020900 24006KT P6SM BKN150 WS020/25030KT
     FM021300 24009KT P6SM BKN120
     FM021800 25009G17KT 6SM -TSRA OVC050CB
     FM022200 27008KT P6SM VCSH BKN035
     FM030200 VRB03KT 6SM BR BKN030=

USA.gov is the U.S. government's official web portal to all federal, state and local government web resources and services.